createdAt,value
2023-05-10T00:02:47.519Z,38.75
2023-05-10T00:05:51.684Z,41.38
2023-05-10T00:08:55.621Z,42.28
2023-05-10T00:11:59.977Z,42.50
2023-05-10T00:15:04.802Z,42.80
2023-05-10T00:18:08.859Z,41.95
2023-05-10T00:21:12.830Z,42.20
2023-05-10T00:24:16.970Z,44.08
2023-05-10T00:27:21.001Z,41.93
2023-05-10T00:30:25.056Z,42.80
2023-05-10T00:33:27.986Z,40.90
2023-05-10T00:36:31.260Z,44.17
2023-05-10T00:39:34.911Z,41.35
2023-05-10T00:42:38.860Z,41.83
2023-05-10T00:45:43.537Z,41.17
2023-05-10T00:48:48.544Z,41.63
2023-05-10T00:51:52.385Z,41.22
2023-05-10T00:54:57.171Z,40.40
2023-05-10T00:58:01.014Z,40.60
2023-05-10T01:01:05.169Z,39.63
2023-05-10T01:04:08.837Z,38.92
2023-05-10T01:07:12.955Z,37.92
2023-05-10T01:10:17.292Z,39.45
2023-05-10T01:13:38.046Z,37.70
2023-05-10T01:16:43.829Z,37.33
2023-05-10T01:19:47.147Z,38.83
2023-05-10T01:23:21.696Z,37.75
2023-05-10T01:26:51.577Z,39.28
2023-05-10T01:30:17.291Z,37.93
2023-05-10T01:33:27.115Z,37.55
2023-05-10T01:36:56.958Z,37.30
2023-05-10T01:40:10.288Z,36.92
2023-05-10T01:43:23.620Z,36.78
2023-05-10T01:46:41.614Z,36.63
2023-05-10T01:49:55.075Z,35.67
2023-05-10T01:53:01.138Z,37.17
2023-05-10T01:56:05.395Z,36.95
2023-05-10T01:59:16.038Z,38.47
2023-05-10T02:02:22.706Z,36.37
2023-05-10T02:05:27.101Z,37.00
2023-05-10T02:08:31.681Z,37.45
2023-05-10T02:11:35.879Z,36.92
2023-05-10T02:14:41.609Z,35.50
2023-05-10T02:17:48.579Z,33.70
2023-05-10T02:20:55.504Z,33.70
2023-05-10T02:24:00.954Z,32.42
2023-05-10T02:27:06.555Z,25.05
2023-05-10T02:30:13.780Z,25.83
2023-05-10T02:33:16.994Z,27.33
2023-05-10T02:36:23.094Z,26.63
2023-05-10T02:39:30.049Z,26.23
2023-05-10T02:42:38.136Z,24.67
2023-05-10T02:45:42.129Z,24.80
2023-05-10T02:48:46.319Z,25.10
2023-05-10T02:51:55.793Z,25.83
2023-05-10T02:55:05.108Z,27.67
2023-05-10T02:58:08.547Z,25.48
2023-05-10T03:01:12.601Z,26.25
2023-05-10T03:04:16.738Z,26.07
2023-05-10T03:07:23.151Z,27.38
2023-05-10T03:10:31.100Z,26.67
2023-05-10T03:13:40.487Z,25.73
2023-05-10T03:16:58.365Z,25.50
2023-05-10T03:20:13.626Z,24.97
2023-05-10T03:23:20.141Z,23.52
2023-05-10T03:26:28.490Z,23.23
2023-05-10T03:29:48.032Z,21.10
2023-05-10T03:32:52.296Z,21.15
2023-05-10T03:35:55.889Z,21.77
2023-05-10T03:38:59.917Z,23.75
2023-05-10T03:42:03.934Z,21.48
2023-05-10T03:45:09.180Z,22.65
2023-05-10T03:48:15.170Z,22.27
2023-05-10T03:51:19.706Z,23.10
2023-05-10T03:54:23.384Z,22.80
2023-05-10T03:57:27.487Z,21.95
2023-05-10T04:00:31.774Z,22.52
2023-05-10T04:03:38.463Z,20.90
2023-05-10T04:06:42.346Z,18.30
2023-05-10T04:09:46.548Z,17.30
2023-05-10T04:12:50.074Z,17.42
2023-05-10T04:15:53.996Z,17.70
2023-05-10T04:18:57.988Z,17.60
2023-05-10T04:22:02.103Z,16.13
2023-05-10T04:25:06.345Z,16.60
2023-05-10T04:28:10.565Z,17.05
2023-05-10T04:31:14.381Z,16.67
2023-05-10T04:34:18.278Z,13.95
2023-05-10T04:37:22.972Z,12.87
2023-05-10T04:40:27.828Z,14.18
2023-05-10T04:43:31.488Z,13.98
2023-05-10T04:46:35.492Z,14.93
2023-05-10T04:49:39.242Z,12.38
2023-05-10T04:52:43.240Z,12.20
2023-05-10T04:55:48.315Z,12.45
2023-05-10T04:58:52.339Z,12.77
2023-05-10T05:01:56.007Z,11.55
2023-05-10T05:04:59.880Z,11.27
2023-05-10T05:08:03.583Z,11.80
2023-05-10T05:11:07.492Z,11.02
2023-05-10T05:14:11.084Z,9.27
2023-05-10T05:17:15.102Z,7.30
2023-05-10T05:20:20.502Z,7.45
2023-05-10T05:23:26.675Z,8.27
2023-05-10T05:26:30.222Z,7.93
2023-05-10T05:29:34.451Z,6.72
2023-05-10T05:32:38.064Z,7.13
2023-05-10T05:35:42.012Z,7.07
2023-05-10T05:38:46.635Z,7.20
2023-05-10T05:41:50.409Z,7.50
2023-05-10T05:44:54.017Z,7.35
2023-05-10T05:47:58.472Z,9.25
2023-05-10T05:51:04.619Z,6.53
2023-05-10T05:54:10.174Z,6.80
2023-05-10T05:57:13.265Z,10.23
2023-05-10T06:00:17.239Z,6.65
2023-05-10T06:03:22.444Z,8.55
2023-05-10T06:06:26.040Z,9.95
2023-05-10T06:09:29.025Z,7.43
2023-05-10T06:12:33.030Z,7.15
2023-05-10T06:15:36.641Z,5.72
2023-05-10T06:18:40.687Z,5.50
2023-05-10T06:21:44.313Z,5.82
2023-05-10T06:24:48.302Z,6.03
2023-05-10T06:27:53.898Z,6.28
2023-05-10T06:30:57.927Z,6.35
2023-05-10T06:34:01.606Z,6.55
2023-05-10T06:37:05.663Z,6.40
2023-05-10T06:40:09.769Z,7.47
2023-05-10T06:43:14.162Z,7.38
2023-05-10T06:46:17.917Z,7.75
2023-05-10T06:49:21.588Z,7.75
2023-05-10T06:52:25.225Z,6.13
2023-05-10T06:55:28.883Z,6.50
2023-05-10T06:58:34.171Z,6.90
2023-05-10T07:01:38.226Z,7.40
2023-05-10T07:04:41.934Z,8.13
2023-05-10T07:07:46.049Z,8.63
2023-05-10T07:10:49.925Z,7.47
2023-05-10T07:13:53.833Z,7.13
2023-05-10T07:16:57.455Z,7.22
2023-05-10T07:20:02.250Z,7.28
2023-05-10T07:23:05.817Z,7.57
2023-05-10T07:26:10.015Z,8.40
2023-05-10T07:29:13.758Z,9.68
2023-05-10T07:32:17.599Z,7.97
2023-05-10T07:35:21.351Z,7.43
2023-05-10T07:38:25.328Z,7.65
2023-05-10T07:41:28.853Z,6.57
2023-05-10T07:44:32.980Z,7.68
2023-05-10T07:47:36.632Z,7.50
2023-05-10T07:50:40.583Z,8.30
2023-05-10T07:53:44.149Z,7.45
2023-05-10T07:56:49.144Z,7.60
2023-05-10T07:59:52.775Z,7.57
2023-05-10T08:02:56.756Z,7.22
2023-05-10T08:06:01.166Z,7.80
2023-05-10T08:09:05.078Z,8.20
2023-05-10T08:12:08.779Z,8.20
2023-05-10T08:15:12.847Z,8.90
2023-05-10T08:18:16.604Z,9.00
2023-05-10T08:21:22.901Z,8.40
2023-05-10T08:24:27.874Z,8.90
2023-05-10T08:27:31.148Z,6.90
2023-05-10T08:30:34.297Z,7.28
2023-05-10T08:33:37.956Z,7.60
2023-05-10T08:36:41.690Z,7.63
2023-05-10T08:39:49.641Z,8.77
2023-05-10T08:43:08.791Z,8.30
2023-05-10T08:46:13.007Z,8.00
2023-05-10T08:49:22.424Z,7.95
2023-05-10T08:52:28.872Z,7.78
2023-05-10T08:55:32.066Z,7.70
2023-05-10T08:58:36.004Z,8.63
2023-05-10T09:01:39.341Z,8.52
2023-05-10T09:04:44.200Z,8.27
2023-05-10T09:07:47.894Z,8.40
2023-05-10T09:10:51.312Z,8.27
2023-05-10T09:13:55.010Z,8.73
2023-05-10T09:16:58.974Z,8.55
2023-05-10T09:20:04.174Z,8.55
2023-05-10T09:23:08.640Z,8.35
2023-05-10T09:26:12.332Z,8.73
2023-05-10T09:29:17.675Z,7.73
2023-05-10T09:32:21.636Z,7.55
2023-05-10T09:35:29.699Z,7.75
2023-05-10T09:38:52.362Z,6.07
2023-05-10T09:41:55.310Z,5.68
2023-05-10T09:45:06.603Z,7.57
2023-05-10T09:48:10.516Z,5.13
2023-05-10T09:51:25.063Z,5.97
2023-05-10T09:54:29.098Z,11.52
2023-05-10T09:57:34.642Z,6.25
2023-05-10T10:00:44.162Z,5.47
2023-05-10T10:03:47.888Z,8.15
2023-05-10T10:07:02.393Z,6.15
2023-05-10T10:10:06.419Z,5.53
2023-05-10T10:13:09.969Z,5.03
2023-05-10T10:16:13.081Z,6.43
2023-05-10T10:19:17.227Z,5.55
2023-05-10T10:22:20.337Z,4.78
2023-05-10T10:25:24.506Z,5.30
2023-05-10T10:28:34.094Z,5.95
2023-05-10T10:31:49.588Z,5.73
2023-05-10T10:34:53.773Z,5.60
2023-05-10T10:37:58.541Z,4.97
2023-05-10T10:41:12.408Z,4.85
2023-05-10T10:44:26.737Z,5.15
2023-05-10T10:47:34.576Z,5.90
2023-05-10T10:50:47.643Z,7.05
2023-05-10T10:53:51.346Z,5.45
2023-05-10T10:57:15.435Z,5.03
2023-05-10T11:00:26.481Z,7.80
2023-05-10T11:03:30.864Z,6.33
2023-05-10T11:06:34.973Z,5.30
2023-05-10T11:09:42.678Z,5.75
2023-05-10T11:13:09.573Z,5.82
2023-05-10T11:16:14.726Z,5.05
2023-05-10T11:19:19.895Z,5.83
2023-05-10T11:22:27.647Z,5.35
2023-05-10T11:25:30.725Z,5.20
2023-05-10T11:28:34.852Z,5.85
2023-05-10T11:31:45.380Z,5.55
2023-05-10T11:34:50.266Z,5.80
2023-05-10T11:37:53.799Z,6.28
2023-05-10T11:40:57.758Z,5.93
2023-05-10T11:44:01.453Z,6.97
2023-05-10T11:47:05.893Z,10.20
2023-05-10T11:50:10.023Z,6.83
2023-05-10T11:53:15.580Z,5.97
2023-05-10T11:56:18.620Z,5.82
2023-05-10T11:59:21.916Z,6.53
2023-05-10T12:02:26.198Z,6.80
2023-05-10T12:05:30.199Z,6.47
2023-05-10T12:08:33.149Z,7.13
2023-05-10T12:11:44.196Z,6.00
2023-05-10T12:14:52.732Z,6.10
2023-05-10T12:17:56.308Z,5.47
2023-05-10T12:21:08.118Z,6.63
2023-05-10T12:24:12.058Z,6.18
2023-05-10T12:30:37.476Z,7.57
2023-05-10T12:33:45.491Z,7.00
2023-05-10T12:36:53.925Z,7.00
2023-05-10T12:39:57.569Z,9.95
2023-05-10T12:43:01.719Z,8.18
2023-05-10T12:46:16.435Z,8.95
2023-05-10T12:49:21.510Z,10.10
2023-05-10T12:52:24.806Z,9.90
2023-05-10T12:55:28.808Z,8.48
2023-05-10T12:58:36.120Z,9.60
2023-05-10T13:01:40.342Z,8.82
2023-05-10T13:04:44.246Z,13.07
2023-05-10T13:07:48.336Z,15.50
2023-05-10T13:10:52.069Z,14.00
2023-05-10T13:13:56.265Z,12.45
2023-05-10T13:17:00.281Z,12.75
2023-05-10T13:20:05.285Z,13.43
2023-05-10T13:23:08.186Z,13.97
2023-05-10T13:26:11.168Z,14.10
2023-05-10T13:29:14.818Z,6.68
2023-05-10T13:32:18.810Z,8.57
2023-05-10T13:35:22.767Z,11.60
2023-05-10T13:38:26.836Z,10.50
2023-05-10T13:41:30.600Z,7.80
2023-05-10T13:44:35.305Z,6.25
2023-05-10T13:47:38.299Z,8.20
2023-05-10T13:50:42.176Z,8.23
2023-05-10T13:53:45.771Z,9.33
2023-05-10T13:56:50.435Z,7.88
2023-05-10T13:59:55.831Z,9.13
2023-05-10T14:03:01.212Z,7.60
2023-05-10T14:06:04.944Z,8.85
2023-05-10T14:09:09.375Z,9.93
2023-05-10T14:12:13.059Z,10.02
2023-05-10T14:15:17.094Z,7.93
2023-05-10T14:18:21.244Z,7.85
2023-05-10T14:21:25.293Z,9.00
2023-05-10T14:24:28.233Z,8.33
2023-05-10T14:27:31.921Z,10.43
2023-05-10T14:30:38.200Z,11.18
2023-05-10T14:33:41.518Z,10.43
2023-05-10T14:36:45.241Z,7.43
2023-05-10T14:39:48.630Z,5.27
2023-05-10T14:42:53.910Z,4.65
2023-05-10T14:45:58.010Z,4.30
2023-05-10T14:49:02.127Z,4.35
2023-05-10T14:52:05.705Z,5.30
2023-05-10T14:55:10.488Z,4.30
2023-05-10T14:58:13.543Z,5.45
2023-05-10T15:01:17.672Z,6.07
2023-05-10T15:04:22.797Z,4.55
2023-05-10T15:07:27.095Z,4.45
2023-05-10T15:10:30.573Z,4.97
2023-05-10T15:13:35.664Z,4.80
2023-05-10T15:16:39.268Z,5.88
2023-05-10T15:19:43.433Z,4.55
2023-05-10T15:22:46.412Z,4.78
2023-05-10T15:25:51.762Z,4.77
2023-05-10T15:28:55.802Z,4.53
2023-05-10T15:31:59.695Z,5.03
2023-05-10T15:35:04.154Z,4.30
2023-05-10T15:38:09.059Z,3.75
2023-05-10T15:41:11.899Z,4.37
2023-05-10T15:44:16.483Z,4.45
2023-05-10T15:47:20.142Z,3.83
2023-05-10T15:50:23.604Z,4.00
2023-05-10T15:53:26.718Z,4.30
2023-05-10T15:56:31.625Z,4.20
2023-05-10T15:59:36.347Z,3.97
2023-05-10T16:02:41.920Z,4.43
2023-05-10T16:05:45.564Z,4.47
2023-05-10T16:08:49.000Z,4.80
2023-05-10T16:11:52.658Z,3.50
2023-05-10T16:14:57.032Z,3.60
2023-05-10T16:18:00.845Z,3.75
2023-05-10T16:21:04.930Z,4.00
2023-05-10T16:24:08.741Z,3.90
2023-05-10T16:27:14.156Z,3.40
2023-05-10T16:30:17.793Z,3.63
2023-05-10T16:33:21.767Z,3.95
2023-05-10T16:36:25.532Z,4.07
2023-05-10T16:39:29.462Z,3.80
2023-05-10T16:42:33.095Z,4.23
2023-05-10T16:45:37.449Z,3.80
2023-05-10T16:48:41.161Z,3.65
2023-05-10T16:51:45.408Z,3.78
2023-05-10T16:54:48.412Z,4.07
2023-05-10T16:57:52.709Z,4.40
2023-05-10T17:00:55.585Z,4.70
2023-05-10T17:03:59.579Z,4.60
2023-05-10T17:07:02.499Z,5.13
2023-05-10T17:10:06.024Z,4.55
2023-05-10T17:13:10.365Z,4.10
2023-05-10T17:16:14.309Z,4.30
2023-05-10T17:19:18.236Z,4.40
2023-05-10T17:22:22.055Z,3.90
2023-05-10T17:25:25.269Z,4.18
2023-05-10T17:28:28.307Z,4.40
2023-05-10T17:31:33.468Z,4.15
2023-05-10T17:35:01.395Z,4.10
2023-05-10T17:38:05.386Z,4.32
2023-05-10T17:41:08.982Z,4.70
2023-05-10T17:44:13.894Z,4.77
2023-05-10T17:47:17.207Z,5.18
2023-05-10T17:50:20.318Z,5.10
2023-05-10T17:53:23.675Z,4.35
2023-05-10T17:56:27.890Z,5.18
2023-05-10T17:59:31.796Z,4.20
2023-05-10T18:02:37.571Z,4.35
2023-05-10T18:05:41.574Z,4.55
2023-05-10T18:08:45.935Z,5.25
2023-05-10T18:11:48.903Z,4.43
2023-05-10T18:14:52.639Z,4.93
2023-05-10T18:17:57.168Z,4.63
2023-05-10T18:21:01.745Z,4.72
2023-05-10T18:24:06.348Z,3.65
2023-05-10T18:27:12.190Z,4.07
2023-05-10T18:30:15.840Z,3.60
2023-05-10T18:33:19.931Z,3.50
2023-05-10T18:36:24.368Z,4.20
2023-05-10T18:39:27.892Z,3.53
2023-05-10T18:42:32.133Z,4.07
2023-05-10T18:45:35.473Z,3.90
2023-05-10T18:48:39.631Z,3.80
2023-05-10T18:51:42.448Z,4.28
2023-05-10T18:54:45.898Z,4.05
2023-05-10T18:57:48.872Z,4.00
2023-05-10T19:00:53.662Z,3.67
2023-05-10T19:03:57.237Z,4.05
2023-05-10T19:07:02.584Z,4.60
2023-05-10T19:10:06.311Z,4.47
2023-05-10T19:13:09.976Z,4.97
2023-05-10T19:16:21.806Z,4.70
2023-05-10T19:19:26.067Z,4.70
2023-05-10T19:25:37.600Z,4.57
2023-05-10T19:28:41.644Z,4.00
2023-05-10T19:31:45.492Z,3.87
2023-05-10T19:34:51.165Z,3.95
2023-05-10T19:37:54.756Z,3.60
2023-05-10T19:41:00.150Z,3.67
2023-05-10T19:44:04.170Z,4.20
2023-05-10T19:47:09.913Z,4.40
2023-05-10T19:50:14.308Z,3.97
2023-05-10T19:53:18.422Z,4.60
2023-05-10T19:56:22.220Z,4.43
2023-05-10T19:59:25.278Z,4.30
2023-05-10T20:02:28.280Z,4.90
2023-05-10T20:05:31.288Z,4.03
2023-05-10T20:08:34.805Z,4.75
2023-05-10T20:11:38.421Z,4.63
2023-05-10T20:14:41.789Z,4.55
2023-05-10T20:17:45.701Z,4.97
2023-05-10T20:20:48.880Z,4.25
2023-05-10T20:23:52.493Z,4.85
2023-05-10T20:26:57.179Z,5.50
2023-05-10T20:30:00.813Z,5.03
2023-05-10T20:33:05.152Z,5.40
2023-05-10T20:36:10.127Z,5.97
2023-05-10T20:39:14.098Z,5.50
2023-05-10T20:42:18.048Z,7.22
2023-05-10T20:45:22.177Z,5.93
2023-05-10T20:48:25.538Z,5.27
2023-05-10T20:51:31.317Z,4.65
2023-05-10T20:54:34.258Z,5.10
2023-05-10T20:57:37.640Z,6.28
2023-05-10T21:00:41.338Z,6.10
2023-05-10T21:03:44.985Z,7.27
2023-05-10T21:06:48.279Z,5.78
2023-05-10T21:09:52.466Z,5.80
2023-05-10T21:12:56.394Z,6.30
2023-05-10T21:15:59.856Z,5.97
2023-05-10T21:19:03.235Z,6.57
2023-05-10T21:22:07.382Z,5.63
2023-05-10T21:25:10.716Z,6.60
2023-05-10T21:28:14.157Z,5.72
2023-05-10T21:31:17.561Z,5.70
2023-05-10T21:34:22.202Z,5.77
2023-05-10T21:37:27.372Z,6.32
2023-05-10T21:40:31.366Z,6.85
2023-05-10T21:43:35.212Z,6.68
2023-05-10T21:46:39.176Z,7.25
2023-05-10T21:49:42.694Z,6.53
2023-05-10T21:52:46.605Z,7.35
2023-05-10T21:55:50.230Z,6.50
2023-05-10T21:58:54.262Z,6.28
2023-05-10T22:01:57.220Z,7.28
2023-05-10T22:05:00.517Z,6.30
2023-05-10T22:08:03.488Z,6.18
2023-05-10T22:11:06.803Z,7.25
2023-05-10T22:14:09.707Z,7.35
2023-05-10T22:17:14.991Z,6.85
2023-05-10T22:20:19.437Z,6.83
2023-05-10T22:23:23.619Z,6.63
2023-05-10T22:26:27.803Z,6.75
2023-05-10T22:29:31.415Z,6.30
2023-05-10T22:32:35.192Z,6.20
2023-05-10T22:35:45.081Z,4.93
2023-05-10T22:38:48.860Z,4.85
2023-05-10T22:41:52.479Z,5.22
2023-05-10T22:44:55.699Z,5.05
2023-05-10T22:48:00.598Z,4.97
2023-05-10T22:51:04.269Z,4.80
2023-05-10T22:54:07.880Z,5.45
2023-05-10T22:57:10.805Z,5.35
2023-05-10T23:00:15.529Z,5.68
2023-05-10T23:03:18.836Z,6.30
2023-05-10T23:06:22.072Z,5.57
2023-05-10T23:09:25.095Z,5.57
2023-05-10T23:12:28.275Z,5.28
2023-05-10T23:15:33.615Z,8.70
2023-05-10T23:18:37.560Z,7.20
2023-05-10T23:21:41.381Z,9.03
2023-05-10T23:24:45.107Z,5.85
2023-05-10T23:27:48.013Z,5.57
2023-05-10T23:30:59.572Z,5.40
2023-05-10T23:34:03.487Z,4.90
2023-05-10T23:37:07.409Z,5.20
2023-05-10T23:40:11.536Z,5.20
2023-05-10T23:43:17.004Z,5.80
2023-05-10T23:46:19.988Z,5.32
2023-05-10T23:49:23.105Z,5.30
2023-05-10T23:52:26.166Z,5.07
2023-05-10T23:55:29.103Z,5.00
2023-05-10T23:58:32.723Z,5.85
